createdAt,value
2022-12-05T00:01:15.379Z,118.99
2022-12-05T00:03:42.400Z,118.99
2022-12-05T00:06:09.340Z,118.99
2022-12-05T00:08:36.197Z,118.99
2022-12-05T00:11:02.920Z,118.99
2022-12-05T00:13:29.676Z,118.99
2022-12-05T00:15:56.395Z,118.99
2022-12-05T00:18:23.036Z,118.99
2022-12-05T00:20:49.866Z,118.99
2022-12-05T00:23:16.563Z,118.99
2022-12-05T00:25:43.265Z,118.99
2022-12-05T00:28:09.975Z,118.99
2022-12-05T00:30:40.433Z,118.99
2022-12-05T00:33:07.110Z,118.99
2022-12-05T00:35:34.409Z,118.99
2022-12-05T00:38:01.164Z,118.99
2022-12-05T00:40:27.889Z,118.99
2022-12-05T00:42:54.568Z,118.99
2022-12-05T00:45:21.448Z,118.99
2022-12-05T00:47:48.119Z,118.99
2022-12-05T00:50:14.828Z,118.99
2022-12-05T00:52:41.478Z,118.99
2022-12-05T00:55:08.843Z,118.99
2022-12-05T00:57:35.537Z,118.99
2022-12-05T01:00:02.664Z,118.99
2022-12-05T01:02:30.217Z,118.99
2022-12-05T01:04:56.874Z,118.99
2022-12-05T01:07:23.849Z,118.99
2022-12-05T01:09:50.601Z,118.99
2022-12-05T01:12:17.475Z,118.99
2022-12-05T01:14:44.307Z,118.99
2022-12-05T01:17:11.048Z,118.99
2022-12-05T01:19:37.871Z,118.99
2022-12-05T01:22:05.672Z,118.99
2022-12-05T01:24:32.492Z,118.99
2022-12-05T01:26:59.325Z,118.99
2022-12-05T01:29:26.494Z,118.99
2022-12-05T01:31:54.235Z,118.99
2022-12-05T01:34:21.230Z,118.73
2022-12-05T01:36:48.703Z,118.63
2022-12-05T01:39:16.658Z,118.24
2022-12-05T01:41:47.233Z,117.88
2022-12-05T01:44:13.836Z,117.79
2022-12-05T01:46:46.187Z,117.33
2022-12-05T01:49:18.210Z,117.39
2022-12-05T01:51:51.162Z,117.04
2022-12-05T01:54:19.544Z,117.10
2022-12-05T01:56:50.794Z,117.13
2022-12-05T01:59:20.596Z,117.25
2022-12-05T02:01:47.361Z,117.21
2022-12-05T02:04:14.672Z,117.37
2022-12-05T02:06:41.465Z,117.85
2022-12-05T02:09:08.166Z,117.88
2022-12-05T02:11:41.809Z,118.19
2022-12-05T02:14:23.021Z,118.18
2022-12-05T02:17:06.810Z,118.10
2022-12-05T02:19:55.378Z,117.66
2022-12-05T02:22:46.132Z,117.83
2022-12-05T02:25:21.815Z,117.72
2022-12-05T02:28:14.371Z,117.67
2022-12-05T02:31:00.012Z,117.57
2022-12-05T02:33:38.571Z,117.44
2022-12-05T02:36:21.648Z,117.37
2022-12-05T02:39:02.943Z,117.05
2022-12-05T02:41:37.827Z,117.01
2022-12-05T02:44:14.454Z,116.67
2022-12-05T02:46:43.010Z,116.74
2022-12-05T02:49:12.939Z,116.84
2022-12-05T02:51:44.434Z,116.93
2022-12-05T02:54:16.728Z,117.29
2022-12-05T02:56:46.154Z,117.25
2022-12-05T02:59:16.066Z,117.05
2022-12-05T03:01:47.267Z,116.60
2022-12-05T03:04:15.225Z,116.48
2022-12-05T03:06:53.906Z,116.49
2022-12-05T03:09:27.609Z,116.67
2022-12-05T03:12:00.225Z,116.87
2022-12-05T03:14:33.061Z,116.85
2022-12-05T03:17:03.073Z,116.81
2022-12-05T03:19:55.710Z,116.99
2022-12-05T03:22:32.176Z,116.95
2022-12-05T03:25:00.545Z,116.88
2022-12-05T03:27:53.250Z,117.60
2022-12-05T03:30:22.562Z,117.46
2022-12-05T03:33:01.442Z,117.63
2022-12-05T03:35:41.908Z,117.12
2022-12-05T03:38:16.049Z,117.12
2022-12-05T03:40:51.669Z,117.02
2022-12-05T03:43:36.606Z,117.09
2022-12-05T03:46:13.020Z,116.98
2022-12-05T03:48:46.923Z,116.80
2022-12-05T03:51:17.378Z,117.21
2022-12-05T03:54:02.216Z,117.54
2022-12-05T03:56:51.314Z,117.59
2022-12-05T03:59:27.191Z,117.76
2022-12-05T04:01:56.121Z,117.47
2022-12-05T04:04:29.648Z,117.12
2022-12-05T04:07:00.731Z,117.05
2022-12-05T04:09:33.378Z,117.63
2022-12-05T04:12:05.414Z,117.51
2022-12-05T04:14:35.416Z,117.37
2022-12-05T04:17:06.285Z,117.36
2022-12-05T04:20:06.762Z,117.47
2022-12-05T04:22:34.882Z,117.41
2022-12-05T04:25:22.774Z,117.71
2022-12-05T04:28:21.433Z,117.95
2022-12-05T04:31:06.463Z,117.82
2022-12-05T04:33:44.857Z,117.63
2022-12-05T04:36:39.449Z,117.84
2022-12-05T04:39:18.271Z,117.69
2022-12-05T04:41:51.706Z,117.42
2022-12-05T04:44:23.407Z,117.40
2022-12-05T04:46:51.222Z,117.22
2022-12-05T04:49:22.603Z,117.37
2022-12-05T04:51:53.067Z,117.47
2022-12-05T04:54:31.974Z,117.34
2022-12-05T04:57:18.931Z,117.38
2022-12-05T04:59:46.043Z,117.41
2022-12-05T05:02:17.469Z,117.41
2022-12-05T05:04:51.068Z,117.31
2022-12-05T05:07:18.820Z,117.47
2022-12-05T05:09:45.729Z,117.24
2022-12-05T05:12:18.557Z,117.50
2022-12-05T05:14:45.828Z,117.31
2022-12-05T05:17:12.659Z,117.50
2022-12-05T05:19:39.306Z,117.13
2022-12-05T05:22:05.945Z,116.89
2022-12-05T05:24:32.866Z,116.99
2022-12-05T05:26:59.729Z,116.97
2022-12-05T05:29:26.771Z,117.03
2022-12-05T05:31:53.865Z,117.12
2022-12-05T05:34:20.569Z,116.92
2022-12-05T05:36:52.688Z,116.85
2022-12-05T05:39:19.425Z,116.70
2022-12-05T05:41:46.712Z,116.43
2022-12-05T05:44:13.440Z,116.38
2022-12-05T05:46:40.200Z,116.81
2022-12-05T05:49:06.963Z,116.60
2022-12-05T05:51:34.295Z,116.62
2022-12-05T05:54:01.392Z,116.52
2022-12-05T05:56:28.968Z,116.13
2022-12-05T05:58:58.557Z,115.99
2022-12-05T06:01:25.497Z,115.98
2022-12-05T06:03:52.748Z,115.93
2022-12-05T06:06:21.117Z,115.90
2022-12-05T06:08:48.307Z,115.85
2022-12-05T06:11:25.967Z,115.97
2022-12-05T06:13:57.209Z,115.58
2022-12-05T06:16:25.050Z,115.28
2022-12-05T06:18:52.245Z,115.57
2022-12-05T06:21:19.517Z,115.97
2022-12-05T06:23:46.293Z,116.28
2022-12-05T06:26:15.951Z,116.13
2022-12-05T06:28:42.798Z,115.78
2022-12-05T06:31:11.232Z,115.71
2022-12-05T06:33:38.425Z,115.85
2022-12-05T06:36:11.354Z,116.40
2022-12-05T06:38:42.073Z,115.91
2022-12-05T06:41:14.006Z,115.77
2022-12-05T06:43:41.102Z,116.34
2022-12-05T06:46:09.963Z,116.12
2022-12-05T06:48:36.718Z,116.54
2022-12-05T06:51:04.240Z,116.62
2022-12-05T06:53:31.034Z,116.37
2022-12-05T06:55:59.448Z,116.51
2022-12-05T06:58:26.580Z,116.69
2022-12-05T07:01:12.394Z,116.41
2022-12-05T07:03:39.508Z,116.45
2022-12-05T07:06:07.698Z,116.22
2022-12-05T07:08:35.129Z,116.60
2022-12-05T07:11:03.303Z,116.86
2022-12-05T07:13:30.129Z,116.78
2022-12-05T07:15:58.919Z,116.49
2022-12-05T07:18:26.638Z,116.18
2022-12-05T07:21:16.856Z,115.97
2022-12-05T07:23:45.529Z,115.99
2022-12-05T07:26:15.905Z,116.20
2022-12-05T07:28:42.869Z,116.41
2022-12-05T07:31:12.637Z,116.59
2022-12-05T07:33:39.776Z,116.73
2022-12-05T07:36:10.978Z,116.99
2022-12-05T07:38:38.154Z,117.00
2022-12-05T07:41:12.980Z,117.10
2022-12-05T07:43:40.925Z,117.18
2022-12-05T07:46:11.215Z,117.36
2022-12-05T07:48:38.081Z,117.55
2022-12-05T07:51:06.350Z,117.47
2022-12-05T07:53:34.399Z,117.02
2022-12-05T07:56:06.813Z,117.14
2022-12-05T07:58:34.554Z,117.18
2022-12-05T08:01:12.491Z,117.21
2022-12-05T08:03:39.766Z,117.65
2022-12-05T08:06:12.388Z,118.01
2022-12-05T08:08:39.440Z,118.30
2022-12-05T08:11:21.465Z,118.33
2022-12-05T08:13:48.960Z,118.53
2022-12-05T08:16:21.310Z,118.69
2022-12-05T08:18:48.407Z,118.63
2022-12-05T08:21:18.563Z,118.99
2022-12-05T08:23:46.369Z,118.99
2022-12-05T08:26:25.737Z,118.98
2022-12-05T08:29:07.779Z,118.92
2022-12-05T08:31:37.205Z,118.99
2022-12-05T08:34:03.843Z,118.99
2022-12-05T08:36:31.571Z,118.86
2022-12-05T08:39:00.241Z,118.87
2022-12-05T08:41:29.942Z,118.99
2022-12-05T08:43:58.492Z,118.99
2022-12-05T08:46:26.006Z,118.79
2022-12-05T08:48:52.765Z,118.43
2022-12-05T08:51:19.594Z,117.93
2022-12-05T08:53:46.595Z,117.33
2022-12-05T08:56:14.067Z,117.42
2022-12-05T08:58:41.255Z,117.12
2022-12-05T09:01:22.094Z,116.66
2022-12-05T09:03:48.986Z,116.25
2022-12-05T09:06:21.154Z,116.11
2022-12-05T09:08:49.097Z,116.28
2022-12-05T09:11:19.454Z,116.58
2022-12-05T09:13:47.652Z,116.67
2022-12-05T09:16:17.258Z,117.07
2022-12-05T09:18:44.883Z,117.33
2022-12-05T09:21:14.276Z,117.33
2022-12-05T09:23:41.119Z,117.33
2022-12-05T09:26:11.854Z,117.63
2022-12-05T09:28:39.411Z,118.12
2022-12-05T09:31:09.251Z,118.06
2022-12-05T09:33:37.294Z,118.46
2022-12-05T09:36:10.827Z,118.74
2022-12-05T09:38:37.516Z,118.73
2022-12-05T09:41:13.193Z,118.86
2022-12-05T09:44:03.493Z,118.94
2022-12-05T09:46:42.688Z,118.99
2022-12-05T09:49:12.120Z,118.99
2022-12-05T09:51:44.357Z,118.99
2022-12-05T09:54:11.835Z,118.95
2022-12-05T09:56:40.700Z,118.70
2022-12-05T09:59:16.825Z,118.66
2022-12-05T10:02:03.967Z,118.75
2022-12-05T10:04:46.371Z,118.85
2022-12-05T10:07:18.928Z,118.85
2022-12-05T10:10:20.128Z,118.99
2022-12-05T10:12:56.370Z,118.99
2022-12-05T10:15:32.138Z,118.99
2022-12-05T10:18:10.591Z,118.99
2022-12-05T10:20:46.653Z,118.99
2022-12-05T10:23:48.945Z,118.99
2022-12-05T10:26:11.543Z,118.99
2022-12-05T10:28:59.057Z,118.99
2022-12-05T10:31:37.554Z,118.99
2022-12-05T10:34:37.237Z,118.97
2022-12-05T10:37:30.883Z,118.99
2022-12-05T10:39:58.397Z,118.99
2022-12-05T10:42:35.969Z,118.77
2022-12-05T10:45:09.038Z,118.45
2022-12-05T10:47:35.976Z,118.38
2022-12-05T10:50:17.490Z,118.46
2022-12-05T10:52:44.808Z,118.11
2022-12-05T10:55:16.156Z,118.02
2022-12-05T10:57:42.876Z,118.33
2022-12-05T11:00:14.917Z,118.00
2022-12-05T11:02:42.969Z,118.00
2022-12-05T11:05:10.129Z,117.58
2022-12-05T11:07:43.039Z,117.21
2022-12-05T11:10:27.236Z,117.02
2022-12-05T11:12:57.484Z,116.92
2022-12-05T11:15:27.939Z,116.76
2022-12-05T11:17:58.505Z,116.70
2022-12-05T11:20:25.230Z,116.43
2022-12-05T11:22:54.088Z,116.06
2022-12-05T11:25:29.737Z,115.78
2022-12-05T11:28:20.849Z,115.83
2022-12-05T11:31:00.642Z,115.61
2022-12-05T11:33:30.262Z,115.51
2022-12-05T11:36:04.338Z,115.27
2022-12-05T11:38:32.783Z,115.09
2022-12-05T11:41:25.539Z,114.84
2022-12-05T11:44:31.916Z,114.62
2022-12-05T11:47:13.840Z,114.76
2022-12-05T11:49:58.821Z,115.72
2022-12-05T11:53:08.715Z,115.94
2022-12-05T11:55:41.606Z,115.78
2022-12-05T11:58:26.329Z,115.88
2022-12-05T12:01:13.647Z,116.06
2022-12-05T12:04:04.910Z,116.07
2022-12-05T12:06:43.821Z,116.03
2022-12-05T12:09:28.705Z,116.30
2022-12-05T12:12:22.436Z,116.20
2022-12-05T12:14:55.370Z,115.99
2022-12-05T12:17:29.543Z,115.98
2022-12-05T12:20:17.319Z,116.13
2022-12-05T12:23:12.920Z,115.96
2022-12-05T12:26:16.430Z,116.57
2022-12-05T12:28:46.399Z,116.38
2022-12-05T12:31:13.115Z,116.02
2022-12-05T12:33:49.935Z,115.95
2022-12-05T12:36:18.848Z,116.22
2022-12-05T12:39:10.789Z,116.02
2022-12-05T12:41:55.618Z,116.15
2022-12-05T12:44:41.086Z,116.00
2022-12-05T12:47:39.886Z,116.28
2022-12-05T12:50:45.041Z,116.28
2022-12-05T12:53:50.098Z,115.90
2022-12-05T12:56:46.225Z,116.21
2022-12-05T12:59:38.510Z,116.74
2022-12-05T13:02:31.083Z,116.57
2022-12-05T13:05:08.125Z,116.35
2022-12-05T13:07:45.154Z,116.37
2022-12-05T13:10:30.682Z,116.82
2022-12-05T13:12:59.525Z,116.73
2022-12-05T13:15:58.228Z,116.74
2022-12-05T13:18:26.174Z,116.55
2022-12-05T13:20:56.418Z,116.86
2022-12-05T13:23:26.949Z,117.31
2022-12-05T13:25:56.303Z,117.21
2022-12-05T13:28:26.343Z,117.15
2022-12-05T13:31:02.525Z,117.12
2022-12-05T13:33:50.454Z,117.02
2022-12-05T13:36:40.680Z,117.45
2022-12-05T13:39:31.911Z,117.43
2022-12-05T13:42:17.826Z,117.17
2022-12-05T13:44:47.798Z,117.24
2022-12-05T13:47:32.464Z,117.44
2022-12-05T13:50:07.345Z,117.27
2022-12-05T13:53:05.064Z,117.08
2022-12-05T13:55:36.480Z,117.02
2022-12-05T13:58:32.619Z,117.40
2022-12-05T14:01:27.539Z,117.35
2022-12-05T14:04:02.867Z,117.54
2022-12-05T14:06:38.652Z,117.54
2022-12-05T14:09:29.899Z,117.24
2022-12-05T14:12:14.738Z,117.89
2022-12-05T14:14:56.939Z,117.74
2022-12-05T14:17:30.044Z,117.45
2022-12-05T14:19:59.994Z,117.24
2022-12-05T14:22:49.055Z,117.25
2022-12-05T14:25:47.841Z,117.28
2022-12-05T14:28:41.202Z,117.44
2022-12-05T14:31:30.499Z,117.30
2022-12-05T14:34:28.099Z,117.42
2022-12-05T14:36:57.828Z,117.47
2022-12-05T14:39:33.862Z,117.79
2022-12-05T14:42:03.019Z,117.81
2022-12-05T14:44:32.281Z,117.76
2022-12-05T14:47:06.618Z,117.74
2022-12-05T14:49:54.487Z,117.75
2022-12-05T14:52:24.745Z,117.80
2022-12-05T14:54:54.250Z,117.83
2022-12-05T14:57:21.757Z,117.89
2022-12-05T14:59:54.998Z,117.87
2022-12-05T15:02:29.107Z,117.96
2022-12-05T15:05:02.352Z,118.13
2022-12-05T15:07:37.931Z,118.14
2022-12-05T15:10:19.032Z,118.69
2022-12-05T15:13:05.999Z,118.57
2022-12-05T15:15:42.731Z,118.57
2022-12-05T15:18:17.416Z,118.21
2022-12-05T15:20:50.446Z,118.06
2022-12-05T15:23:47.749Z,117.88
2022-12-05T15:29:23.442Z,118.28
2022-12-05T15:31:53.170Z,118.31
2022-12-05T15:34:47.420Z,118.08
2022-12-05T15:37:19.430Z,117.94
2022-12-05T15:39:51.460Z,117.95
2022-12-05T15:42:18.599Z,117.87
2022-12-05T15:44:45.801Z,117.92
2022-12-05T15:47:32.822Z,118.08
2022-12-05T15:49:59.867Z,118.14
2022-12-05T15:52:56.516Z,118.17
2022-12-05T15:55:39.829Z,118.17
2022-12-05T15:58:15.393Z,118.21
2022-12-05T16:00:48.065Z,117.99
2022-12-05T16:03:27.615Z,117.83
2022-12-05T16:06:01.354Z,117.90
2022-12-05T16:08:40.605Z,117.94
2022-12-05T16:11:12.002Z,117.97
2022-12-05T16:13:44.067Z,118.02
2022-12-05T16:16:20.107Z,117.83
2022-12-05T16:19:04.475Z,117.62
2022-12-05T16:21:41.381Z,117.60
2022-12-05T16:24:19.476Z,117.50
2022-12-05T16:27:01.339Z,117.73
2022-12-05T16:29:34.150Z,117.60
2022-12-05T16:32:03.707Z,117.36
2022-12-05T16:34:34.114Z,117.34
2022-12-05T16:37:01.322Z,117.24
2022-12-05T16:39:29.026Z,117.30
2022-12-05T16:42:02.274Z,117.80
2022-12-05T16:44:28.944Z,117.53
2022-12-05T16:46:56.645Z,117.54
2022-12-05T16:49:42.632Z,117.54
2022-12-05T16:52:14.664Z,117.49
2022-12-05T16:54:45.933Z,117.43
2022-12-05T16:57:15.290Z,117.34
2022-12-05T16:59:43.694Z,117.34
2022-12-05T17:02:15.422Z,117.34
2022-12-05T17:04:42.471Z,117.14
2022-12-05T17:07:09.850Z,117.04
2022-12-05T17:09:36.579Z,116.97
2022-12-05T17:12:20.376Z,117.04
2022-12-05T17:14:47.343Z,117.54
2022-12-05T17:17:18.997Z,117.30
2022-12-05T17:19:45.920Z,117.12
2022-12-05T17:22:15.428Z,116.73
2022-12-05T17:24:42.116Z,116.59
2022-12-05T17:27:11.533Z,116.74
2022-12-05T17:29:38.491Z,116.89
2022-12-05T17:32:05.594Z,117.00
2022-12-05T17:34:32.427Z,117.02
2022-12-05T17:37:00.233Z,116.70
2022-12-05T17:39:28.762Z,116.47
2022-12-05T17:41:56.365Z,116.63
2022-12-05T17:44:23.304Z,116.75
2022-12-05T17:46:50.367Z,116.75
2022-12-05T17:49:18.037Z,116.72
2022-12-05T17:52:13.341Z,116.74
2022-12-05T17:54:32.120Z,116.69
2022-12-05T17:56:58.798Z,116.54
2022-12-05T17:59:25.521Z,116.91
2022-12-05T18:01:52.230Z,116.93
2022-12-05T18:04:23.043Z,116.73
2022-12-05T18:06:50.562Z,116.87
2022-12-05T18:09:17.310Z,117.15
2022-12-05T18:11:44.575Z,117.12
2022-12-05T18:14:11.560Z,117.09
2022-12-05T18:16:38.432Z,117.26
2022-12-05T18:19:05.585Z,117.26
2022-12-05T18:21:32.418Z,117.08
2022-12-05T18:23:59.967Z,116.83
2022-12-05T18:26:26.847Z,116.84
2022-12-05T18:28:56.670Z,116.87
2022-12-05T18:31:23.663Z,117.08
2022-12-05T18:33:53.514Z,117.09
2022-12-05T18:36:21.246Z,117.10
2022-12-05T18:38:56.185Z,117.16
2022-12-05T18:41:27.410Z,117.55
2022-12-05T18:43:56.914Z,117.60
2022-12-05T18:46:24.351Z,117.49
2022-12-05T18:48:51.312Z,117.54
2022-12-05T18:51:23.142Z,117.48
2022-12-05T18:53:52.844Z,117.59
2022-12-05T18:56:26.746Z,117.68
2022-12-05T18:58:59.487Z,117.63
2022-12-05T19:01:27.838Z,117.55
2022-12-05T19:03:57.049Z,117.73
2022-12-05T19:06:27.271Z,117.60
2022-12-05T19:08:55.701Z,117.30
2022-12-05T19:11:23.790Z,117.12
2022-12-05T19:13:58.042Z,117.16
2022-12-05T19:16:25.615Z,116.83
2022-12-05T19:18:57.699Z,116.74
2022-12-05T19:21:25.212Z,116.73
2022-12-05T19:23:52.182Z,116.93
2022-12-05T19:26:19.235Z,117.02
2022-12-05T19:28:45.937Z,116.79
2022-12-05T19:31:16.183Z,116.75
2022-12-05T19:33:45.013Z,116.88
2022-12-05T19:36:14.619Z,117.05
2022-12-05T19:38:42.893Z,117.25
2022-12-05T19:41:12.386Z,117.33
2022-12-05T19:43:39.615Z,117.35
2022-12-05T19:46:12.561Z,117.27
2022-12-05T19:48:39.543Z,117.22
2022-12-05T19:51:06.851Z,117.35
2022-12-05T19:53:37.896Z,117.43
2022-12-05T19:56:13.566Z,117.41
2022-12-05T19:58:40.677Z,117.42
2022-12-05T20:01:17.112Z,117.53
2022-12-05T20:03:49.092Z,117.37
2022-12-05T20:06:16.813Z,117.29
2022-12-05T20:08:44.023Z,117.25
2022-12-05T20:11:13.608Z,117.36
2022-12-05T20:13:49.012Z,117.33
2022-12-05T20:16:18.687Z,117.29
2022-12-05T20:18:46.255Z,117.34
2022-12-05T20:21:15.408Z,117.50
2022-12-05T20:23:42.616Z,117.57
2022-12-05T20:26:12.369Z,117.63
2022-12-05T20:28:39.914Z,117.56
2022-12-05T20:31:08.329Z,117.67
2022-12-05T20:33:36.121Z,117.66
2022-12-05T20:36:06.102Z,117.56
2022-12-05T20:38:32.814Z,117.29
2022-12-05T20:41:05.413Z,117.21
2022-12-05T20:43:32.828Z,117.14
2022-12-05T20:46:13.159Z,117.06
2022-12-05T20:48:40.282Z,116.73
2022-12-05T20:51:09.185Z,116.56
2022-12-05T20:53:38.221Z,116.40
2022-12-05T20:56:16.855Z,116.80
2022-12-05T20:58:45.438Z,117.04
2022-12-05T21:01:13.591Z,117.26
2022-12-05T21:03:42.905Z,117.18
2022-12-05T21:06:21.924Z,116.47
2022-12-05T21:08:49.887Z,115.92
2022-12-05T21:11:16.759Z,115.64
2022-12-05T21:13:43.586Z,115.95
2022-12-05T21:16:16.768Z,116.28
2022-12-05T21:18:44.759Z,116.22
2022-12-05T21:21:25.405Z,116.08
2022-12-05T21:23:55.496Z,116.15
2022-12-05T21:26:23.887Z,115.93
2022-12-05T21:28:50.719Z,115.97
2022-12-05T21:31:30.775Z,115.90
2022-12-05T21:34:00.506Z,116.15
2022-12-05T21:36:30.045Z,116.24
2022-12-05T21:38:56.886Z,116.30
2022-12-05T21:41:25.132Z,116.22
2022-12-05T21:43:55.484Z,116.09
2022-12-05T21:46:26.294Z,116.25
2022-12-05T21:48:54.140Z,116.33
2022-12-05T21:51:21.722Z,116.49
2022-12-05T21:53:48.958Z,116.44
2022-12-05T21:56:18.308Z,116.41
2022-12-05T21:58:46.113Z,116.54
2022-12-05T22:01:17.861Z,116.76
2022-12-05T22:03:45.255Z,116.84
2022-12-05T22:06:14.685Z,116.85
2022-12-05T22:08:41.863Z,116.89
2022-12-05T22:11:08.691Z,117.10
2022-12-05T22:13:35.963Z,116.86
2022-12-05T22:16:03.744Z,116.62
2022-12-05T22:18:31.213Z,116.63
2022-12-05T22:21:05.338Z,116.80
2022-12-05T22:23:33.106Z,116.65
2022-12-05T22:26:11.060Z,116.81
2022-12-05T22:28:38.376Z,116.78
2022-12-05T22:31:08.112Z,116.76
2022-12-05T22:33:38.194Z,116.54
2022-12-05T22:36:07.409Z,116.56
2022-12-05T22:38:36.559Z,116.73
2022-12-05T22:41:08.734Z,117.02
2022-12-05T22:43:37.450Z,117.26
2022-12-05T22:46:09.544Z,117.47
2022-12-05T22:48:36.198Z,117.50
2022-12-05T22:51:03.849Z,117.50
2022-12-05T22:53:31.377Z,117.63
2022-12-05T22:56:10.358Z,117.72
2022-12-05T22:58:38.387Z,117.85
2022-12-05T23:04:24.142Z,117.76
2022-12-05T23:06:50.921Z,117.72
2022-12-05T23:09:18.146Z,117.73
2022-12-05T23:11:44.877Z,117.66
2022-12-05T23:14:11.643Z,117.58
2022-12-05T23:16:38.632Z,117.67
2022-12-05T23:19:05.911Z,117.80
2022-12-05T23:21:38.073Z,117.73
2022-12-05T23:24:07.869Z,117.65
2022-12-05T23:26:39.477Z,117.60
2022-12-05T23:29:06.721Z,117.50
2022-12-05T23:31:33.623Z,117.40
2022-12-05T23:34:03.597Z,117.18
2022-12-05T23:36:32.560Z,116.90
2022-12-05T23:38:59.252Z,116.60
2022-12-05T23:41:26.344Z,116.74
2022-12-05T23:43:54.040Z,116.63
2022-12-05T23:46:23.583Z,116.73
2022-12-05T23:48:51.404Z,116.63
2022-12-05T23:51:26.555Z,116.03
2022-12-05T23:53:58.793Z,115.98
2022-12-05T23:56:28.933Z,115.88
2022-12-05T23:58:55.969Z,115.70
